sensor_id;sensor_type;location;lat;lon;timestamp;P1;durP1;ratioP1;P2;durP2;ratioP2
69053;SDS011;56125;52.242;4.756;2024-01-25T00:04:31;8.33;;;1.93;;
69053;SDS011;56125;52.242;4.756;2024-01-25T00:09:32;8.13;;;1.90;;
69053;SDS011;56125;52.242;4.756;2024-01-25T00:14:34;9.53;;;2.23;;
69053;SDS011;56125;52.242;4.756;2024-01-25T00:19:35;7.72;;;2.00;;
69053;SDS011;56125;52.242;4.756;2024-01-25T00:24:36;8.53;;;2.10;;
69053;SDS011;56125;52.242;4.756;2024-01-25T00:29:37;9.25;;;2.20;;
69053;SDS011;56125;52.242;4.756;2024-01-25T00:34:38;9.90;;;1.60;;
69053;SDS011;56125;52.242;4.756;2024-01-25T00:39:39;11.15;;;2.20;;
69053;SDS011;56125;52.242;4.756;2024-01-25T00:44:41;10.43;;;2.10;;
69053;SDS011;56125;52.242;4.756;2024-01-25T00:49:42;6.10;;;2.33;;
69053;SDS011;56125;52.242;4.756;2024-01-25T00:54:43;8.53;;;1.87;;
69053;SDS011;56125;52.242;4.756;2024-01-25T00:59:45;6.32;;;1.70;;
69053;SDS011;56125;52.242;4.756;2024-01-25T01:04:46;7.37;;;2.10;;
69053;SDS011;56125;52.242;4.756;2024-01-25T01:09:47;7.38;;;2.30;;
69053;SDS011;56125;52.242;4.756;2024-01-25T01:14:48;7.97;;;2.17;;
69053;SDS011;56125;52.242;4.756;2024-01-25T01:19:49;8.52;;;2.25;;
69053;SDS011;56125;52.242;4.756;2024-01-25T01:24:50;6.80;;;1.87;;
69053;SDS011;56125;52.242;4.756;2024-01-25T01:29:51;8.20;;;2.08;;
69053;SDS011;56125;52.242;4.756;2024-01-25T01:34:52;8.73;;;1.70;;
69053;SDS011;56125;52.242;4.756;2024-01-25T01:39:53;7.85;;;1.75;;
69053;SDS011;56125;52.242;4.756;2024-01-25T01:44:56;8.43;;;1.93;;
69053;SDS011;56125;52.242;4.756;2024-01-25T01:49:57;7.38;;;2.08;;
69053;SDS011;56125;52.242;4.756;2024-01-25T01:54:58;8.77;;;2.20;;
69053;SDS011;56125;52.242;4.756;2024-01-25T01:59:59;6.18;;;1.95;;
69053;SDS011;56125;52.242;4.756;2024-01-25T02:05:04;9.00;;;2.17;;
69053;SDS011;56125;52.242;4.756;2024-01-25T02:10:06;6.88;;;2.13;;
69053;SDS011;56125;52.242;4.756;2024-01-25T02:15:08;7.20;;;2.10;;
69053;SDS011;56125;52.242;4.756;2024-01-25T02:20:09;8.70;;;2.50;;
69053;SDS011;56125;52.242;4.756;2024-01-25T02:25:11;11.20;;;2.20;;
69053;SDS011;56125;52.242;4.756;2024-01-25T02:30:12;9.75;;;2.33;;
69053;SDS011;56125;52.242;4.756;2024-01-25T02:35:13;8.47;;;2.43;;
69053;SDS011;56125;52.242;4.756;2024-01-25T02:40:14;9.13;;;2.08;;
69053;SDS011;56125;52.242;4.756;2024-01-25T02:45:15;11.70;;;2.07;;
69053;SDS011;56125;52.242;4.756;2024-01-25T02:50:17;11.15;;;2.00;;
69053;SDS011;56125;52.242;4.756;2024-01-25T02:55:18;7.03;;;1.80;;
69053;SDS011;56125;52.242;4.756;2024-01-25T03:00:19;6.88;;;2.10;;
69053;SDS011;56125;52.242;4.756;2024-01-25T03:05:21;6.33;;;2.10;;
69053;SDS011;56125;52.242;4.756;2024-01-25T03:10:22;7.00;;;2.08;;
69053;SDS011;56125;52.242;4.756;2024-01-25T03:15:24;8.80;;;2.70;;
69053;SDS011;56125;52.242;4.756;2024-01-25T03:20:25;8.02;;;1.92;;
69053;SDS011;56125;52.242;4.756;2024-01-25T03:25:26;7.07;;;2.20;;
69053;SDS011;56125;52.242;4.756;2024-01-25T03:30:27;8.85;;;2.10;;
69053;SDS011;56125;52.242;4.756;2024-01-25T03:35:28;7.07;;;1.83;;
69053;SDS011;56125;52.242;4.756;2024-01-25T03:40:29;7.72;;;2.00;;
69053;SDS011;56125;52.242;4.756;2024-01-25T03:45:30;9.67;;;2.20;;
69053;SDS011;56125;52.242;4.756;2024-01-25T03:50:33;8.98;;;2.05;;
69053;SDS011;56125;52.242;4.756;2024-01-25T03:55:34;7.17;;;1.80;;
69053;SDS011;56125;52.242;4.756;2024-01-25T04:00:35;7.20;;;2.40;;
69053;SDS011;56125;52.242;4.756;2024-01-25T04:05:36;5.63;;;1.80;;
69053;SDS011;56125;52.242;4.756;2024-01-25T04:10:37;10.25;;;2.25;;
69053;SDS011;56125;52.242;4.756;2024-01-25T04:15:38;8.73;;;1.87;;
69053;SDS011;56125;52.242;4.756;2024-01-25T04:20:41;7.25;;;2.00;;
69053;SDS011;56125;52.242;4.756;2024-01-25T04:25:42;7.27;;;1.93;;
69053;SDS011;56125;52.242;4.756;2024-01-25T04:30:43;8.30;;;2.25;;
69053;SDS011;56125;52.242;4.756;2024-01-25T04:35:44;5.13;;;1.93;;
69053;SDS011;56125;52.242;4.756;2024-01-25T04:40:45;4.95;;;1.98;;
69053;SDS011;56125;52.242;4.756;2024-01-25T04:45:46;8.00;;;2.10;;
69053;SDS011;56125;52.242;4.756;2024-01-25T04:50:48;6.85;;;1.90;;
69053;SDS011;56125;52.242;4.756;2024-01-25T04:55:49;6.47;;;1.77;;
69053;SDS011;56125;52.242;4.756;2024-01-25T05:00:50;6.70;;;2.00;;
69053;SDS011;56125;52.242;4.756;2024-01-25T05:05:53;6.80;;;2.00;;
69053;SDS011;56125;52.242;4.756;2024-01-25T05:10:54;6.90;;;1.88;;
69053;SDS011;56125;52.242;4.756;2024-01-25T05:15:55;7.27;;;1.90;;
69053;SDS011;56125;52.242;4.756;2024-01-25T05:20:56;6.80;;;2.28;;
69053;SDS011;56125;52.242;4.756;2024-01-25T05:25:58;6.23;;;1.80;;
69053;SDS011;56125;52.242;4.756;2024-01-25T05:30:59;6.88;;;2.00;;
69053;SDS011;56125;52.242;4.756;2024-01-25T05:36:00;6.90;;;2.17;;
69053;SDS011;56125;52.242;4.756;2024-01-25T05:41:01;9.18;;;2.30;;
69053;SDS011;56125;52.242;4.756;2024-01-25T05:46:02;6.97;;;1.90;;
69053;SDS011;56125;52.242;4.756;2024-01-25T05:51:03;6.78;;;2.22;;
69053;SDS011;56125;52.242;4.756;2024-01-25T05:56:05;7.97;;;2.50;;
69053;SDS011;56125;52.242;4.756;2024-01-25T06:01:06;8.57;;;2.28;;
69053;SDS011;56125;52.242;4.756;2024-01-25T06:06:07;8.23;;;1.93;;
69053;SDS011;56125;52.242;4.756;2024-01-25T06:11:08;7.65;;;1.65;;
69053;SDS011;56125;52.242;4.756;2024-01-25T06:16:10;9.37;;;2.33;;
69053;SDS011;56125;52.242;4.756;2024-01-25T06:21:11;8.27;;;2.38;;
69053;SDS011;56125;52.242;4.756;2024-01-25T06:26:12;11.60;;;2.27;;
69053;SDS011;56125;52.242;4.756;2024-01-25T06:31:14;6.85;;;2.55;;
69053;SDS011;56125;52.242;4.756;2024-01-25T06:36:16;8.60;;;2.63;;
69053;SDS011;56125;52.242;4.756;2024-01-25T06:41:17;10.10;;;2.30;;
69053;SDS011;56125;52.242;4.756;2024-01-25T06:46:18;7.93;;;1.93;;
69053;SDS011;56125;52.242;4.756;2024-01-25T06:51:19;7.97;;;2.00;;
69053;SDS011;56125;52.242;4.756;2024-01-25T06:56:20;5.67;;;2.13;;
69053;SDS011;56125;52.242;4.756;2024-01-25T07:01:21;7.10;;;2.10;;
69053;SDS011;56125;52.242;4.756;2024-01-25T07:06:23;6.60;;;2.10;;
69053;SDS011;56125;52.242;4.756;2024-01-25T07:11:24;6.53;;;2.28;;
69053;SDS011;56125;52.242;4.756;2024-01-25T07:16:25;7.97;;;2.20;;
69053;SDS011;56125;52.242;4.756;2024-01-25T07:21:26;8.55;;;2.03;;
69053;SDS011;56125;52.242;4.756;2024-01-25T07:26:28;7.90;;;2.33;;
69053;SDS011;56125;52.242;4.756;2024-01-25T07:31:29;9.65;;;2.38;;
69053;SDS011;56125;52.242;4.756;2024-01-25T07:36:30;8.87;;;2.40;;
69053;SDS011;56125;52.242;4.756;2024-01-25T07:41:31;7.25;;;2.13;;
69053;SDS011;56125;52.242;4.756;2024-01-25T07:46:32;8.27;;;2.30;;
69053;SDS011;56125;52.242;4.756;2024-01-25T07:51:33;8.23;;;2.28;;
69053;SDS011;56125;52.242;4.756;2024-01-25T07:56:34;7.30;;;2.33;;
69053;SDS011;56125;52.242;4.756;2024-01-25T08:01:35;6.47;;;2.00;;
69053;SDS011;56125;52.242;4.756;2024-01-25T08:06:36;5.90;;;2.07;;
69053;SDS011;56125;52.242;4.756;2024-01-25T08:11:37;8.32;;;2.10;;
69053;SDS011;56125;52.242;4.756;2024-01-25T08:16:38;6.07;;;2.10;;
69053;SDS011;56125;52.242;4.756;2024-01-25T08:21:39;7.95;;;2.22;;
69053;SDS011;56125;52.242;4.756;2024-01-25T08:26:40;6.10;;;2.27;;
69053;SDS011;56125;52.242;4.756;2024-01-25T08:31:41;5.05;;;1.98;;
69053;SDS011;56125;52.242;4.756;2024-01-25T08:36:42;8.47;;;2.50;;
69053;SDS011;56125;52.242;4.756;2024-01-25T08:41:44;7.22;;;2.15;;
69053;SDS011;56125;52.242;4.756;2024-01-25T08:46:45;6.93;;;2.27;;
69053;SDS011;56125;52.242;4.756;2024-01-25T08:51:47;8.43;;;1.80;;
69053;SDS011;56125;52.242;4.756;2024-01-25T08:56:48;7.40;;;2.30;;
69053;SDS011;56125;52.242;4.756;2024-01-25T09:01:49;5.30;;;2.25;;
69053;SDS011;56125;52.242;4.756;2024-01-25T09:06:50;9.70;;;2.03;;
69053;SDS011;56125;52.242;4.756;2024-01-25T09:11:51;10.70;;;2.42;;
69053;SDS011;56125;52.242;4.756;2024-01-25T09:16:52;7.97;;;2.40;;
69053;SDS011;56125;52.242;4.756;2024-01-25T09:21:53;7.82;;;2.35;;
69053;SDS011;56125;52.242;4.756;2024-01-25T09:26:54;7.87;;;2.03;;
69053;SDS011;56125;52.242;4.756;2024-01-25T09:31:56;5.32;;;2.00;;
69053;SDS011;56125;52.242;4.756;2024-01-25T09:36:57;7.20;;;2.00;;
69053;SDS011;56125;52.242;4.756;2024-01-25T09:41:58;9.85;;;2.45;;
69053;SDS011;56125;52.242;4.756;2024-01-25T09:47:01;5.77;;;1.90;;
69053;SDS011;56125;52.242;4.756;2024-01-25T09:52:06;7.35;;;2.50;;
69053;SDS011;56125;52.242;4.756;2024-01-25T09:57:13;10.27;;;2.67;;
69053;SDS011;56125;52.242;4.756;2024-01-25T10:02:17;9.25;;;2.28;;
69053;SDS011;56125;52.242;4.756;2024-01-25T10:07:37;8.23;;;2.43;;
69053;SDS011;56125;52.242;4.756;2024-01-25T10:12:45;7.10;;;2.28;;
69053;SDS011;56125;52.242;4.756;2024-01-25T10:17:46;6.10;;;2.10;;
69053;SDS011;56125;52.242;4.756;2024-01-25T10:22:48;9.48;;;2.53;;
69053;SDS011;56125;52.242;4.756;2024-01-25T10:27:50;9.37;;;2.00;;
69053;SDS011;56125;52.242;4.756;2024-01-25T10:32:51;6.13;;;2.10;;
69053;SDS011;56125;52.242;4.756;2024-01-25T10:37:56;7.47;;;2.70;;
69053;SDS011;56125;52.242;4.756;2024-01-25T10:42:57;10.23;;;2.47;;
69053;SDS011;56125;52.242;4.756;2024-01-25T10:47:58;7.97;;;2.30;;
69053;SDS011;56125;52.242;4.756;2024-01-25T10:53:00;6.88;;;2.30;;
69053;SDS011;56125;52.242;4.756;2024-01-25T10:58:02;7.47;;;2.30;;
69053;SDS011;56125;52.242;4.756;2024-01-25T11:03:04;8.10;;;2.30;;
69053;SDS011;56125;52.242;4.756;2024-01-25T11:08:16;8.87;;;2.87;;
69053;SDS011;56125;52.242;4.756;2024-01-25T11:13:24;9.60;;;2.40;;
69053;SDS011;56125;52.242;4.756;2024-01-25T11:18:27;9.03;;;2.50;;
69053;SDS011;56125;52.242;4.756;2024-01-25T11:23:31;9.30;;;2.50;;
69053;SDS011;56125;52.242;4.756;2024-01-25T11:28:32;8.73;;;2.80;;
69053;SDS011;56125;52.242;4.756;2024-01-25T11:33:33;6.82;;;2.30;;
69053;SDS011;56125;52.242;4.756;2024-01-25T11:38:36;7.03;;;2.40;;
69053;SDS011;56125;52.242;4.756;2024-01-25T11:43:37;7.00;;;2.20;;
69053;SDS011;56125;52.242;4.756;2024-01-25T11:48:39;8.33;;;2.40;;
69053;SDS011;56125;52.242;4.756;2024-01-25T11:53:41;9.18;;;2.40;;
69053;SDS011;56125;52.242;4.756;2024-01-25T11:58:42;8.27;;;2.40;;
69053;SDS011;56125;52.242;4.756;2024-01-25T12:03:45;8.38;;;2.60;;
69053;SDS011;56125;52.242;4.756;2024-01-25T12:08:46;9.50;;;2.43;;
69053;SDS011;56125;52.242;4.756;2024-01-25T12:13:48;6.50;;;2.35;;
69053;SDS011;56125;52.242;4.756;2024-01-25T12:18:49;7.10;;;2.40;;
69053;SDS011;56125;52.242;4.756;2024-01-25T12:23:50;5.90;;;2.20;;
69053;SDS011;56125;52.242;4.756;2024-01-25T12:28:51;7.80;;;2.20;;
69053;SDS011;56125;52.242;4.756;2024-01-25T12:33:53;7.15;;;2.30;;
69053;SDS011;56125;52.242;4.756;2024-01-25T12:38:54;10.73;;;3.17;;
69053;SDS011;56125;52.242;4.756;2024-01-25T12:43:55;7.93;;;2.33;;
69053;SDS011;56125;52.242;4.756;2024-01-25T12:48:56;8.30;;;2.40;;
69053;SDS011;56125;52.242;4.756;2024-01-25T12:53:58;10.27;;;2.33;;
69053;SDS011;56125;52.242;4.756;2024-01-25T12:58:59;6.33;;;2.73;;
69053;SDS011;56125;52.242;4.756;2024-01-25T13:04:00;7.43;;;2.42;;
69053;SDS011;56125;52.242;4.756;2024-01-25T13:09:01;8.13;;;2.30;;
69053;SDS011;56125;52.242;4.756;2024-01-25T13:14:04;6.50;;;2.17;;
69053;SDS011;56125;52.242;4.756;2024-01-25T13:19:05;9.00;;;2.77;;
69053;SDS011;56125;52.242;4.756;2024-01-25T13:24:06;7.82;;;2.45;;
69053;SDS011;56125;52.242;4.756;2024-01-25T13:29:07;9.87;;;2.90;;
69053;SDS011;56125;52.242;4.756;2024-01-25T13:34:13;7.50;;;2.63;;
69053;SDS011;56125;52.242;4.756;2024-01-25T13:39:14;8.93;;;2.30;;
69053;SDS011;56125;52.242;4.756;2024-01-25T13:44:15;8.25;;;1.95;;
69053;SDS011;56125;52.242;4.756;2024-01-25T13:49:16;7.53;;;2.40;;
69053;SDS011;56125;52.242;4.756;2024-01-25T13:54:17;5.40;;;2.38;;
69053;SDS011;56125;52.242;4.756;2024-01-25T13:59:18;7.03;;;2.43;;
69053;SDS011;56125;52.242;4.756;2024-01-25T14:04:19;9.38;;;2.72;;
69053;SDS011;56125;52.242;4.756;2024-01-25T14:09:20;8.77;;;3.03;;
69053;SDS011;56125;52.242;4.756;2024-01-25T14:14:21;9.02;;;2.63;;
69053;SDS011;56125;52.242;4.756;2024-01-25T14:19:22;10.30;;;2.50;;
69053;SDS011;56125;52.242;4.756;2024-01-25T14:24:23;8.20;;;2.55;;
69053;SDS011;56125;52.242;4.756;2024-01-25T14:29:24;10.70;;;3.30;;
69053;SDS011;56125;52.242;4.756;2024-01-25T14:34:25;9.77;;;2.92;;
69053;SDS011;56125;52.242;4.756;2024-01-25T14:39:26;6.97;;;2.50;;
69053;SDS011;56125;52.242;4.756;2024-01-25T14:44:27;6.93;;;2.08;;
69053;SDS011;56125;52.242;4.756;2024-01-25T14:49:29;10.67;;;3.47;;
69053;SDS011;56125;52.242;4.756;2024-01-25T14:54:30;9.73;;;3.00;;
69053;SDS011;56125;52.242;4.756;2024-01-25T14:59:31;8.20;;;2.70;;
69053;SDS011;56125;52.242;4.756;2024-01-25T15:04:32;7.50;;;2.33;;
69053;SDS011;56125;52.242;4.756;2024-01-25T15:09:33;13.47;;;3.00;;
69053;SDS011;56125;52.242;4.756;2024-01-25T15:14:34;8.48;;;2.53;;
69053;SDS011;56125;52.242;4.756;2024-01-25T15:19:35;6.43;;;2.53;;
69053;SDS011;56125;52.242;4.756;2024-01-25T15:24:37;11.85;;;3.10;;
69053;SDS011;56125;52.242;4.756;2024-01-25T15:29:41;11.13;;;2.70;;
69053;SDS011;56125;52.242;4.756;2024-01-25T15:34:42;9.63;;;2.67;;
69053;SDS011;56125;52.242;4.756;2024-01-25T15:39:43;11.67;;;2.97;;
69053;SDS011;56125;52.242;4.756;2024-01-25T15:44:45;9.32;;;2.67;;
69053;SDS011;56125;52.242;4.756;2024-01-25T15:49:46;8.63;;;3.03;;
69053;SDS011;56125;52.242;4.756;2024-01-25T15:54:47;8.52;;;3.10;;
69053;SDS011;56125;52.242;4.756;2024-01-25T15:59:50;11.23;;;3.63;;
69053;SDS011;56125;52.242;4.756;2024-01-25T16:04:52;11.57;;;4.13;;
69053;SDS011;56125;52.242;4.756;2024-01-25T16:09:53;17.30;;;4.50;;
69053;SDS011;56125;52.242;4.756;2024-01-25T16:14:54;10.43;;;4.03;;
69053;SDS011;56125;52.242;4.756;2024-01-25T16:19:56;7.87;;;3.47;;
69053;SDS011;56125;52.242;4.756;2024-01-25T16:24:57;11.40;;;3.85;;
69053;SDS011;56125;52.242;4.756;2024-01-25T16:29:58;9.13;;;4.27;;
69053;SDS011;56125;52.242;4.756;2024-01-25T16:34:59;10.63;;;4.68;;
69053;SDS011;56125;52.242;4.756;2024-01-25T16:40:00;19.43;;;5.87;;
69053;SDS011;56125;52.242;4.756;2024-01-25T16:45:01;12.80;;;4.63;;
69053;SDS011;56125;52.242;4.756;2024-01-25T16:50:03;8.00;;;4.20;;
69053;SDS011;56125;52.242;4.756;2024-01-25T16:55:04;9.32;;;4.60;;
69053;SDS011;56125;52.242;4.756;2024-01-25T17:00:06;8.77;;;4.00;;
69053;SDS011;56125;52.242;4.756;2024-01-25T17:05:07;11.15;;;4.82;;
69053;SDS011;56125;52.242;4.756;2024-01-25T17:10:08;10.97;;;5.10;;
69053;SDS011;56125;52.242;4.756;2024-01-25T17:15:10;12.57;;;5.60;;
69053;SDS011;56125;52.242;4.756;2024-01-25T17:20:11;10.27;;;4.67;;
69053;SDS011;56125;52.242;4.756;2024-01-25T17:25:12;10.93;;;4.57;;
69053;SDS011;56125;52.242;4.756;2024-01-25T17:30:13;11.03;;;4.43;;
69053;SDS011;56125;52.242;4.756;2024-01-25T17:35:15;8.23;;;4.30;;
69053;SDS011;56125;52.242;4.756;2024-01-25T17:40:16;9.30;;;4.30;;
69053;SDS011;56125;52.242;4.756;2024-01-25T17:45:17;8.23;;;4.30;;
69053;SDS011;56125;52.242;4.756;2024-01-25T17:50:18;10.07;;;4.93;;
69053;SDS011;56125;52.242;4.756;2024-01-25T17:55:19;7.22;;;4.40;;
69053;SDS011;56125;52.242;4.756;2024-01-25T18:00:21;9.80;;;4.63;;
69053;SDS011;56125;52.242;4.756;2024-01-25T18:05:22;8.55;;;4.40;;
69053;SDS011;56125;52.242;4.756;2024-01-25T18:10:23;9.27;;;4.50;;
69053;SDS011;56125;52.242;4.756;2024-01-25T18:15:24;8.60;;;4.65;;
69053;SDS011;56125;52.242;4.756;2024-01-25T18:20:25;8.67;;;5.03;;
69053;SDS011;56125;52.242;4.756;2024-01-25T18:25:26;9.90;;;4.38;;
69053;SDS011;56125;52.242;4.756;2024-01-25T18:30:27;10.67;;;4.40;;
69053;SDS011;56125;52.242;4.756;2024-01-25T18:35:28;8.05;;;3.70;;
69053;SDS011;56125;52.242;4.756;2024-01-25T18:40:31;7.47;;;4.27;;
69053;SDS011;56125;52.242;4.756;2024-01-25T18:45:32;7.32;;;4.03;;
69053;SDS011;56125;52.242;4.756;2024-01-25T18:50:33;6.87;;;3.60;;
69053;SDS011;56125;52.242;4.756;2024-01-25T18:55:34;7.85;;;4.10;;
69053;SDS011;56125;52.242;4.756;2024-01-25T19:00:36;7.23;;;3.80;;
69053;SDS011;56125;52.242;4.756;2024-01-25T19:05:37;6.40;;;3.63;;
69053;SDS011;56125;52.242;4.756;2024-01-25T19:10:39;4.80;;;3.23;;
69053;SDS011;56125;52.242;4.756;2024-01-25T19:15:40;6.20;;;3.30;;
69053;SDS011;56125;52.242;4.756;2024-01-25T19:20:41;5.83;;;3.30;;
69053;SDS011;56125;52.242;4.756;2024-01-25T19:25:43;4.68;;;3.10;;
69053;SDS011;56125;52.242;4.756;2024-01-25T19:30:44;6.90;;;3.50;;
69053;SDS011;56125;52.242;4.756;2024-01-25T19:35:46;5.55;;;2.90;;
69053;SDS011;56125;52.242;4.756;2024-01-25T19:40:49;5.10;;;3.10;;
69053;SDS011;56125;52.242;4.756;2024-01-25T19:45:50;4.45;;;2.88;;
69053;SDS011;56125;52.242;4.756;2024-01-25T19:50:52;5.80;;;2.90;;
69053;SDS011;56125;52.242;4.756;2024-01-25T19:55:53;7.18;;;3.38;;
69053;SDS011;56125;52.242;4.756;2024-01-25T20:00:55;4.60;;;3.07;;
69053;SDS011;56125;52.242;4.756;2024-01-25T20:05:56;4.80;;;3.00;;
69053;SDS011;56125;52.242;4.756;2024-01-25T20:10:58;5.53;;;2.90;;
69053;SDS011;56125;52.242;4.756;2024-01-25T20:15:59;6.53;;;3.28;;
69053;SDS011;56125;52.242;4.756;2024-01-25T20:21:00;3.97;;;2.90;;
69053;SDS011;56125;52.242;4.756;2024-01-25T20:26:01;5.65;;;3.00;;
69053;SDS011;56125;52.242;4.756;2024-01-25T20:31:03;5.33;;;3.10;;
69053;SDS011;56125;52.242;4.756;2024-01-25T20:36:04;4.78;;;2.90;;
69053;SDS011;56125;52.242;4.756;2024-01-25T20:41:05;5.87;;;3.20;;
69053;SDS011;56125;52.242;4.756;2024-01-25T20:46:06;5.38;;;2.72;;
69053;SDS011;56125;52.242;4.756;2024-01-25T20:51:07;5.10;;;2.80;;
69053;SDS011;56125;52.242;4.756;2024-01-25T20:56:09;6.28;;;2.90;;
69053;SDS011;56125;52.242;4.756;2024-01-25T21:01:10;4.30;;;2.87;;
69053;SDS011;56125;52.242;4.756;2024-01-25T21:06:12;3.97;;;2.63;;
69053;SDS011;56125;52.242;4.756;2024-01-25T21:11:14;4.50;;;2.40;;
69053;SDS011;56125;52.242;4.756;2024-01-25T21:16:18;4.88;;;2.72;;
69053;SDS011;56125;52.242;4.756;2024-01-25T21:21:19;2.97;;;2.17;;
69053;SDS011;56125;52.242;4.756;2024-01-25T21:26:20;4.05;;;2.78;;
69053;SDS011;56125;52.242;4.756;2024-01-25T21:31:21;3.10;;;2.30;;
69053;SDS011;56125;52.242;4.756;2024-01-25T21:36:22;3.72;;;2.70;;
69053;SDS011;56125;52.242;4.756;2024-01-25T21:41:23;2.73;;;2.30;;
69053;SDS011;56125;52.242;4.756;2024-01-25T21:46:24;4.72;;;2.33;;
69053;SDS011;56125;52.242;4.756;2024-01-25T21:51:25;5.00;;;2.50;;
69053;SDS011;56125;52.242;4.756;2024-01-25T21:56:26;4.50;;;2.53;;
69053;SDS011;56125;52.242;4.756;2024-01-25T22:01:28;6.60;;;2.50;;
69053;SDS011;56125;52.242;4.756;2024-01-25T22:06:29;4.93;;;2.03;;
69053;SDS011;56125;52.242;4.756;2024-01-25T22:11:30;2.90;;;1.90;;
69053;SDS011;56125;52.242;4.756;2024-01-25T22:16:31;3.38;;;2.10;;
69053;SDS011;56125;52.242;4.756;2024-01-25T22:21:32;3.00;;;1.90;;
69053;SDS011;56125;52.242;4.756;2024-01-25T22:26:34;3.53;;;1.67;;
69053;SDS011;56125;52.242;4.756;2024-01-25T22:31:35;3.00;;;1.73;;
69053;SDS011;56125;52.242;4.756;2024-01-25T22:36:36;2.35;;;1.45;;
69053;SDS011;56125;52.242;4.756;2024-01-25T22:41:37;2.40;;;1.53;;
69053;SDS011;56125;52.242;4.756;2024-01-25T22:46:38;2.63;;;1.80;;
69053;SDS011;56125;52.242;4.756;2024-01-25T22:51:40;2.70;;;1.90;;
69053;SDS011;56125;52.242;4.756;2024-01-25T22:56:41;2.55;;;1.77;;
69053;SDS011;56125;52.242;4.756;2024-01-25T23:01:45;3.20;;;1.83;;
69053;SDS011;56125;52.242;4.756;2024-01-25T23:06:46;1.98;;;1.58;;
69053;SDS011;56125;52.242;4.756;2024-01-25T23:11:48;3.00;;;1.97;;
69053;SDS011;56125;52.242;4.756;2024-01-25T23:16:50;3.88;;;1.60;;
69053;SDS011;56125;52.242;4.756;2024-01-25T23:21:51;2.73;;;1.60;;
69053;SDS011;56125;52.242;4.756;2024-01-25T23:26:52;2.10;;;1.90;;
69053;SDS011;56125;52.242;4.756;2024-01-25T23:31:53;2.20;;;1.50;;
69053;SDS011;56125;52.242;4.756;2024-01-25T23:36:54;2.85;;;1.70;;
69053;SDS011;56125;52.242;4.756;2024-01-25T23:41:55;2.70;;;1.63;;
69053;SDS011;56125;52.242;4.756;2024-01-25T23:46:57;2.90;;;1.70;;
69053;SDS011;56125;52.242;4.756;2024-01-25T23:51:58;2.77;;;1.60;;
69053;SDS011;56125;52.242;4.756;2024-01-25T23:56:59;2.20;;;1.60;;
